Time;durP1;ratioP1;P1;durP2;ratioP2;P2;SDS_P1;SDS_P2;PMS_P1;PMS_P2;Temp;Humidity;BMP_temperature;BMP_pressure;BME280_temperature;BME280_humidity;BME280_pressure;Samples;Min_cycle;Max_cycle;Signal;HPM_P1;HPM_P2
2021/11/05 00:00:06;;;;;;;6.40;5.80;;;;;;;;;;5000485;28;24571;-57
2021/11/05 00:02:32;;;;;;;7.10;6.40;;;;;;;;;;4998615;28;24424;-57
2021/11/05 00:04:57;;;;;;;7.07;6.47;;;;;;;;;;4997099;28;24440;-57
2021/11/05 00:07:22;;;;;;;6.85;6.25;;;;;;;;;;4997050;28;24416;-57
2021/11/05 00:09:47;;;;;;;6.43;5.83;;;;;;;;;;5001520;28;24798;-57
2021/11/05 00:12:13;;;;;;;7.37;6.67;;;;;;;;;;5002194;28;24503;-57
2021/11/05 00:14:38;;;;;;;7.72;6.93;;;;;;;;;;4998506;28;24499;-57
2021/11/05 00:17:03;;;;;;;6.97;6.27;;;;;;;;;;4996648;28;24472;-58
2021/11/05 00:19:29;;;;;;;6.50;5.90;;;;;;;;;;4996267;28;24413;-58
2021/11/05 00:21:54;;;;;;;6.60;6.00;;;;;;;;;;5001473;28;24502;-57
2021/11/05 00:24:19;;;;;;;6.97;6.30;;;;;;;;;;5001888;28;24440;-58
2021/11/05 00:26:44;;;;;;;7.80;7.00;;;;;;;;;;5009503;28;24419;-57
2021/11/05 00:29:09;;;;;;;7.13;6.43;;;;;;;;;;5007374;28;24895;-57
2021/11/05 00:31:34;;;;;;;7.70;6.90;;;;;;;;;;4997819;28;24478;-58
2021/11/05 00:33:59;;;;;;;8.07;7.28;;;;;;;;;;4990696;28;24423;-57
2021/11/05 00:36:25;;;;;;;7.00;6.30;;;;;;;;;;4999007;28;24415;-58
2021/11/05 00:38:50;;;;;;;7.00;6.30;;;;;;;;;;5001247;28;24427;-57
2021/11/05 00:41:15;;;;;;;7.70;7.00;;;;;;;;;;5001197;28;24455;-58
2021/11/05 00:43:41;;;;;;;7.40;6.70;;;;;;;;;;4999420;28;24420;-57
2021/11/05 00:46:06;;;;;;;7.35;6.65;;;;;;;;;;4997278;28;24527;-57
2021/11/05 00:48:31;;;;;;;6.60;6.00;;;;;;;;;;4997809;28;24471;-57
2021/11/05 00:50:56;;;;;;;7.10;6.40;;;;;;;;;;4997560;28;24449;-57
2021/11/05 00:53:21;;;;;;;7.40;6.60;;;;;;;;;;5002439;28;24566;-57
2021/11/05 00:55:47;;;;;;;8.10;7.30;;;;;;;;;;5000533;28;24804;-57
2021/11/05 00:58:12;;;;;;;7.45;6.65;;;;;;;;;;5000652;28;24443;-57
2021/11/05 01:00:37;;;;;;;8.47;7.67;;;;;;;;;;4997978;28;24747;-57
2021/11/05 01:03:02;;;;;;;8.47;7.67;;;;;;;;;;4999319;28;24388;-57
2021/11/05 01:05:27;;;;;;;7.43;6.73;;;;;;;;;;5002224;28;24482;-57
2021/11/05 01:07:53;;;;;;;7.65;6.95;;;;;;;;;;4999854;28;24459;-58
2021/11/05 01:10:18;;;;;;;9.20;8.30;;;;;;;;;;5001598;28;24424;-58
2021/11/05 01:12:43;;;;;;;8.40;7.60;;;;;;;;;;4996616;28;25033;-59
2021/11/05 01:15:09;;;;;;;8.60;7.70;;;;;;;;;;4998097;28;24416;-58
2021/11/05 01:17:35;;;;;;;8.13;7.33;;;;;;;;;;4997090;28;24475;-58
2021/11/05 01:20:00;;;;;;;8.90;7.50;;;;;;;;;;5001314;28;24429;-58
2021/11/05 01:22:25;;;;;;;8.50;7.57;;;;;;;;;;5001245;28;24455;-58
2021/11/05 01:24:51;;;;;;;8.10;7.30;;;;;;;;;;4998713;28;24437;-58
2021/11/05 01:27:18;;;;;;;8.70;7.60;;;;;;;;;;4997658;28;24437;-58
2021/11/05 01:29:43;;;;;;;8.85;7.95;;;;;;;;;;4996210;28;24419;-58
2021/11/05 01:32:09;;;;;;;9.67;7.90;;;;;;;;;;4999690;28;24419;-58
2021/11/05 01:34:34;;;;;;;9.00;8.20;;;;;;;;;;4999554;28;25148;-58
2021/11/05 01:36:59;;;;;;;9.97;8.23;;;;;;;;;;5001833;28;24519;-58
2021/11/05 01:39:24;;;;;;;8.90;8.00;;;;;;;;;;5000821;28;24419;-58
2021/11/05 01:41:50;;;;;;;8.85;7.90;;;;;;;;;;4997650;28;24950;-58
2021/11/05 01:44:15;;;;;;;8.97;7.60;;;;;;;;;;4995551;28;25009;-58
2021/11/05 01:46:43;;;;;;;7.88;7.07;;;;;;;;;;4997622;28;24946;-58
2021/11/05 01:49:09;;;;;;;8.60;7.70;;;;;;;;;;4997904;28;24508;-58
2021/11/05 01:51:36;;;;;;;8.98;8.07;;;;;;;;;;5002184;28;24412;-58
2021/11/05 01:54:02;;;;;;;9.23;8.23;;;;;;;;;;5002633;28;24912;-58
2021/11/05 01:56:27;;;;;;;7.97;7.18;;;;;;;;;;5003578;28;24519;-58
2021/11/05 01:58:52;;;;;;;8.45;7.55;;;;;;;;;;5004628;28;24428;-58
2021/11/05 02:01:17;;;;;;;8.00;7.13;;;;;;;;;;5005177;28;24927;-58
2021/11/05 02:03:42;;;;;;;7.80;7.10;;;;;;;;;;5002125;28;24516;-58
2021/11/05 02:06:08;;;;;;;8.93;8.03;;;;;;;;;;5000777;28;24471;-58
2021/11/05 02:08:34;;;;;;;8.20;7.40;;;;;;;;;;5001218;28;24420;-58
2021/11/05 02:11:02;;;;;;;7.82;7.03;;;;;;;;;;5002240;28;24424;-58
2021/11/05 02:13:28;;;;;;;7.80;7.00;;;;;;;;;;5004418;28;24404;-58
2021/11/05 02:15:54;;;;;;;7.43;6.72;;;;;;;;;;5001908;28;24490;-59
2021/11/05 02:18:19;;;;;;;7.57;6.75;;;;;;;;;;5002480;28;24478;-58
2021/11/05 02:20:44;;;;;;;7.33;6.63;;;;;;;;;;4999991;28;24480;-58
2021/11/05 02:23:09;;;;;;;8.07;7.30;;;;;;;;;;5004316;28;24506;-58
2021/11/05 02:25:35;;;;;;;7.00;6.30;;;;;;;;;;5004169;28;24436;-58
2021/11/05 02:28:00;;;;;;;8.10;7.30;;;;;;;;;;5001475;28;24941;-59
2021/11/05 02:30:25;;;;;;;7.20;6.50;;;;;;;;;;4999285;28;25079;-58
2021/11/05 02:32:50;;;;;;;7.95;7.15;;;;;;;;;;4999776;28;25238;-58
2021/11/05 02:35:16;;;;;;;8.27;7.47;;;;;;;;;;5004453;28;24417;-58
2021/11/05 02:37:41;;;;;;;8.10;7.30;;;;;;;;;;5002146;28;24436;-58
2021/11/05 02:40:07;;;;;;;8.40;7.47;;;;;;;;;;5004129;28;24416;-58
2021/11/05 02:42:32;;;;;;;7.60;6.90;;;;;;;;;;5000113;28;25277;-58
2021/11/05 02:44:57;;;;;;;8.10;6.90;;;;;;;;;;4995377;28;24432;-58
2021/11/05 02:47:25;;;;;;;9.70;7.60;;;;;;;;;;5000229;28;24463;-58
2021/11/05 02:49:51;;;;;;;8.15;6.93;;;;;;;;;;5003634;28;25002;-58
2021/11/05 02:52:16;;;;;;;7.95;7.15;;;;;;;;;;5003510;28;24420;-58
2021/11/05 02:54:41;;;;;;;7.97;7.20;;;;;;;;;;5001968;28;24424;-58
2021/11/05 02:57:07;;;;;;;8.67;7.70;;;;;;;;;;4999545;28;24571;-58
2021/11/05 02:59:32;;;;;;;8.60;7.80;;;;;;;;;;5000632;28;24833;-58
2021/11/05 03:01:57;;;;;;;9.70;8.80;;;;;;;;;;4999747;28;24930;-58
2021/11/05 03:04:22;;;;;;;9.00;8.10;;;;;;;;;;5001689;28;24447;-58
2021/11/05 03:06:48;;;;;;;9.60;8.37;;;;;;;;;;5001192;28;24779;-58
2021/11/05 03:09:14;;;;;;;8.38;7.65;;;;;;;;;;5003695;28;24420;-58
2021/11/05 03:11:40;;;;;;;8.93;8.00;;;;;;;;;;5001399;28;24514;-58
2021/11/05 03:14:06;;;;;;;8.27;7.47;;;;;;;;;;4999428;28;24424;-58
2021/11/05 03:16:31;;;;;;;8.27;7.50;;;;;;;;;;4998113;28;24427;-58
2021/11/05 03:18:56;;;;;;;8.37;7.50;;;;;;;;;;5001732;28;24506;-58
2021/11/05 03:21:22;;;;;;;8.97;8.07;;;;;;;;;;4997364;28;24512;-58
2021/11/05 03:23:47;;;;;;;7.50;6.80;;;;;;;;;;5002911;28;24452;-59
2021/11/05 03:26:12;;;;;;;7.50;6.80;;;;;;;;;;5003308;28;24412;-58
2021/11/05 03:28:37;;;;;;;8.30;7.50;;;;;;;;;;5001592;28;24504;-58
2021/11/05 03:31:03;;;;;;;8.70;7.90;;;;;;;;;;4997998;28;25033;-58
2021/11/05 03:33:28;;;;;;;7.60;6.70;;;;;;;;;;4996800;28;25213;-58
2021/11/05 03:35:53;;;;;;;7.68;6.35;;;;;;;;;;5003010;28;24408;-58
2021/11/05 03:38:18;;;;;;;9.00;7.00;;;;;;;;;;5002858;28;24425;-58
2021/11/05 03:40:43;;;;;;;7.13;6.53;;;;;;;;;;5000403;28;25216;-58
2021/11/05 03:43:09;;;;;;;7.90;7.10;;;;;;;;;;5001447;28;24412;-59
2021/11/05 03:45:34;;;;;;;7.50;6.70;;;;;;;;;;4999032;28;24428;-59
2021/11/05 03:47:59;;;;;;;6.30;5.70;;;;;;;;;;4996737;28;25016;-59
2021/11/05 03:50:24;;;;;;;6.53;5.93;;;;;;;;;;4998663;28;24985;-58
2021/11/05 03:52:50;;;;;;;7.03;6.33;;;;;;;;;;5002966;28;24431;-58
2021/11/05 03:55:16;;;;;;;7.05;6.35;;;;;;;;;;5002764;28;24415;-58
2021/11/05 03:57:41;;;;;;;7.45;6.75;;;;;;;;;;4999042;28;24475;-59
2021/11/05 04:00:09;;;;;;;6.20;5.68;;;;;;;;;;4999010;28;24479;-58
2021/11/05 04:02:35;;;;;;;6.90;6.20;;;;;;;;;;4999341;28;24946;-58
2021/11/05 04:05:00;;;;;;;6.80;6.30;;;;;;;;;;5000495;28;24451;-58
2021/11/05 04:07:26;;;;;;;7.20;6.60;;;;;;;;;;5002638;28;24412;-58
2021/11/05 04:09:51;;;;;;;6.63;6.03;;;;;;;;;;4999731;28;24474;-58
2021/11/05 04:12:17;;;;;;;7.90;7.10;;;;;;;;;;4999102;28;25001;-58
2021/11/05 04:14:42;;;;;;;6.05;5.55;;;;;;;;;;4997948;28;24455;-58
2021/11/05 04:17:08;;;;;;;5.68;5.20;;;;;;;;;;4998258;28;24459;-58
2021/11/05 04:19:33;;;;;;;6.03;5.53;;;;;;;;;;5000319;28;24421;-58
2021/11/05 04:21:58;;;;;;;6.22;5.63;;;;;;;;;;5000111;28;24646;-58
2021/11/05 04:24:24;;;;;;;7.33;6.63;;;;;;;;;;5002073;28;24922;-58
2021/11/05 04:26:49;;;;;;;6.80;6.20;;;;;;;;;;4998514;28;24511;-58
2021/11/05 04:29:15;;;;;;;6.40;5.87;;;;;;;;;;4994780;28;24463;-59
2021/11/05 04:31:41;;;;;;;6.47;5.88;;;;;;;;;;4997425;28;24979;-58
2021/11/05 04:34:06;;;;;;;5.70;5.20;;;;;;;;;;4999467;28;24420;-58
2021/11/05 04:36:33;;;;;;;6.32;5.72;;;;;;;;;;4999768;28;24470;-59
2021/11/05 04:38:59;;;;;;;6.32;5.72;;;;;;;;;;5002041;28;24432;-58
2021/11/05 04:41:24;;;;;;;6.68;6.07;;;;;;;;;;5000059;28;24424;-58
2021/11/05 04:43:50;;;;;;;6.70;6.10;;;;;;;;;;4995589;28;24420;-58
2021/11/05 04:46:15;;;;;;;6.00;5.40;;;;;;;;;;4996687;28;24466;-58
2021/11/05 04:48:41;;;;;;;6.33;5.73;;;;;;;;;;4999600;28;24473;-59
2021/11/05 04:51:06;;;;;;;6.65;5.95;;;;;;;;;;5001407;28;24511;-58
2021/11/05 04:53:31;;;;;;;6.93;6.32;;;;;;;;;;5000654;28;24456;-59
2021/11/05 04:55:56;;;;;;;6.60;6.00;;;;;;;;;;4995278;28;24938;-58
2021/11/05 04:58:21;;;;;;;7.68;6.07;;;;;;;;;;4998959;28;24545;-58
2021/11/05 05:00:46;;;;;;;6.55;5.95;;;;;;;;;;4999685;28;24427;-58
2021/11/05 05:03:11;;;;;;;7.23;6.53;;;;;;;;;;5001226;28;24938;-58
2021/11/05 05:05:37;;;;;;;6.40;5.80;;;;;;;;;;4999437;28;24436;-59
2021/11/05 05:08:02;;;;;;;6.23;5.70;;;;;;;;;;4996311;28;24416;-58
2021/11/05 05:10:28;;;;;;;5.93;5.43;;;;;;;;;;4992594;28;24545;-59
2021/11/05 05:12:53;;;;;;;6.13;5.63;;;;;;;;;;4993332;28;24405;-58
2021/11/05 05:15:19;;;;;;;6.07;5.57;;;;;;;;;;5000418;28;24417;-58
2021/11/05 05:17:44;;;;;;;6.87;6.27;;;;;;;;;;4991524;28;24430;-59
2021/11/05 05:20:11;;;;;;;6.43;5.83;;;;;;;;;;4992344;28;24416;-59
2021/11/05 05:22:37;;;;;;;7.28;6.57;;;;;;;;;;4989584;28;24988;-58
2021/11/05 05:25:03;;;;;;;7.10;6.50;;;;;;;;;;4993282;28;24515;-59
2021/11/05 05:27:28;;;;;;;6.10;5.60;;;;;;;;;;5001842;28;24839;-59
2021/11/05 05:29:53;;;;;;;6.50;6.00;;;;;;;;;;5002383;28;24436;-59
2021/11/05 05:32:18;;;;;;;7.13;6.50;;;;;;;;;;4993320;28;24431;-59
2021/11/05 05:34:43;;;;;;;7.40;6.70;;;;;;;;;;4990477;28;24777;-58
2021/11/05 05:37:09;;;;;;;8.13;7.53;;;;;;;;;;4996484;28;24476;-58
2021/11/05 05:39:34;;;;;;;7.20;6.60;;;;;;;;;;5003029;28;24877;-58
2021/11/05 05:41:59;;;;;;;7.18;6.57;;;;;;;;;;4997381;28;24412;-59
2021/11/05 05:44:24;;;;;;;8.03;7.23;;;;;;;;;;4986799;28;24471;-59
2021/11/05 05:46:49;;;;;;;6.97;6.37;;;;;;;;;;5005655;28;24455;-59
2021/11/05 05:49:15;;;;;;;7.60;7.00;;;;;;;;;;5012968;28;24974;-59
2021/11/05 05:51:40;;;;;;;7.40;6.80;;;;;;;;;;4999595;28;24470;-55
2021/11/05 05:54:05;;;;;;;8.13;7.43;;;;;;;;;;5001408;28;24408;-57
2021/11/05 05:56:30;;;;;;;7.88;7.18;;;;;;;;;;5001897;28;24424;-58
2021/11/05 05:58:55;;;;;;;8.03;7.33;;;;;;;;;;4998897;28;24427;-57
2021/11/05 06:01:21;;;;;;;7.82;7.13;;;;;;;;;;4984159;28;25012;-57
2021/11/05 06:03:46;;;;;;;6.77;6.17;;;;;;;;;;4987690;28;24427;-58
2021/11/05 06:06:11;;;;;;;6.97;6.37;;;;;;;;;;5000785;28;24781;-58
2021/11/05 06:08:36;;;;;;;6.20;5.70;;;;;;;;;;5000453;28;24507;-58
2021/11/05 06:11:02;;;;;;;7.37;6.77;;;;;;;;;;4999348;28;24399;-58
2021/11/05 06:13:27;;;;;;;7.20;6.60;;;;;;;;;;4997217;28;24485;-58
2021/11/05 06:15:54;;;;;;;6.55;5.95;;;;;;;;;;4995264;28;25013;-59
2021/11/05 06:18:19;;;;;;;6.57;6.07;;;;;;;;;;4999867;28;24507;-59
2021/11/05 06:20:44;;;;;;;6.20;5.70;;;;;;;;;;5001605;28;24982;-59
2021/11/05 06:23:09;;;;;;;5.97;5.47;;;;;;;;;;5004264;28;24471;-59
2021/11/05 06:25:34;;;;;;;7.18;6.57;;;;;;;;;;5000744;28;24427;-59
2021/11/05 06:28:00;;;;;;;5.90;5.30;;;;;;;;;;5000331;28;24459;-59
2021/11/05 06:30:25;;;;;;;6.40;5.80;;;;;;;;;;5000904;28;24423;-57
2021/11/05 06:32:51;;;;;;;6.32;5.82;;;;;;;;;;5002932;28;24389;-58
2021/11/05 06:35:16;;;;;;;5.10;4.70;;;;;;;;;;5003925;28;24459;-58
2021/11/05 06:37:42;;;;;;;5.00;4.60;;;;;;;;;;5001919;28;25039;-59
2021/11/05 06:40:08;;;;;;;5.10;4.70;;;;;;;;;;5003754;28;24427;-59
2021/11/05 06:42:34;;;;;;;5.10;4.70;;;;;;;;;;5000977;28;24798;-58
2021/11/05 06:44:59;;;;;;;5.00;4.50;;;;;;;;;;4998636;28;25000;-59
2021/11/05 06:47:24;;;;;;;5.03;4.53;;;;;;;;;;5002306;28;24467;-58
2021/11/05 06:49:49;;;;;;;4.72;4.32;;;;;;;;;;5001326;28;24393;-59
2021/11/05 06:52:15;;;;;;;4.80;4.40;;;;;;;;;;5001449;28;24466;-59
2021/11/05 06:54:40;;;;;;;4.83;4.43;;;;;;;;;;4999576;28;24424;-58
2021/11/05 06:57:06;;;;;;;4.80;4.40;;;;;;;;;;4981661;28;24405;-58
2021/11/05 06:59:31;;;;;;;3.60;3.30;;;;;;;;;;5002411;28;24892;-58
2021/11/05 07:01:56;;;;;;;4.20;3.80;;;;;;;;;;4994483;28;24428;-58
2021/11/05 07:04:21;;;;;;;3.90;3.60;;;;;;;;;;5003610;28;24419;-58
2021/11/05 07:06:46;;;;;;;3.40;3.10;;;;;;;;;;4999749;28;24555;-58
2021/11/05 07:09:13;;;;;;;3.90;3.60;;;;;;;;;;5002587;28;24791;-58
2021/11/05 07:11:38;;;;;;;3.33;3.03;;;;;;;;;;4997797;28;24674;-59
2021/11/05 07:14:03;;;;;;;4.03;3.40;;;;;;;;;;4997817;28;24769;-59
2021/11/05 07:16:32;;;;;;;3.80;3.50;;;;;;;;;;4998861;28;24486;-59
2021/11/05 07:18:57;;;;;;;3.55;3.25;;;;;;;;;;5000551;28;24419;-58
2021/11/05 07:21:22;;;;;;;3.43;3.13;;;;;;;;;;5001754;28;24425;-58
2021/11/05 07:23:48;;;;;;;2.90;2.60;;;;;;;;;;4997930;28;24441;-58
2021/11/05 07:26:14;;;;;;;3.20;2.87;;;;;;;;;;4999547;28;24412;-58
2021/11/05 07:28:39;;;;;;;2.70;2.50;;;;;;;;;;4997584;28;24467;-59
2021/11/05 07:31:04;;;;;;;3.50;3.20;;;;;;;;;;4998247;28;24831;-58
2021/11/05 07:33:29;;;;;;;2.65;2.45;;;;;;;;;;4999872;28;24448;-58
2021/11/05 07:35:55;;;;;;;3.07;2.87;;;;;;;;;;4991226;28;24503;-58
2021/11/05 07:38:20;;;;;;;2.60;2.40;;;;;;;;;;4995551;28;24495;-58
2021/11/05 07:40:45;;;;;;;3.30;3.00;;;;;;;;;;4999665;28;24519;-58
2021/11/05 07:43:10;;;;;;;2.70;2.50;;;;;;;;;;4992800;28;24424;-58
2021/11/05 07:45:35;;;;;;;3.42;3.22;;;;;;;;;;5001422;28;24443;-58
2021/11/05 07:48:01;;;;;;;2.63;2.43;;;;;;;;;;5000110;28;24463;-58
2021/11/05 07:50:26;;;;;;;2.80;2.60;;;;;;;;;;4994942;28;24423;-57
2021/11/05 07:52:52;;;;;;;3.80;3.50;;;;;;;;;;4993237;28;24416;-58
2021/11/05 07:55:17;;;;;;;3.50;3.20;;;;;;;;;;4999404;28;24419;-58
2021/11/05 07:57:42;;;;;;;3.50;3.20;;;;;;;;;;4999434;28;24870;-59
2021/11/05 08:00:09;;;;;;;3.50;3.20;;;;;;;;;;5000651;28;24474;-58
2021/11/05 08:02:34;;;;;;;4.05;3.70;;;;;;;;;;5001384;28;24420;-58
2021/11/05 08:04:59;;;;;;;3.10;2.90;;;;;;;;;;5000794;28;25165;-58
2021/11/05 08:07:24;;;;;;;3.22;3.03;;;;;;;;;;4997468;28;25214;-59
2021/11/05 08:09:50;;;;;;;3.20;3.00;;;;;;;;;;4998974;28;24454;-59
2021/11/05 08:12:15;;;;;;;3.30;3.00;;;;;;;;;;4993153;28;24752;-58
2021/11/05 08:14:40;;;;;;;2.93;2.73;;;;;;;;;;4979319;28;24483;-60
2021/11/05 08:17:05;;;;;;;2.85;2.65;;;;;;;;;;4988785;28;24446;-58
2021/11/05 08:19:30;;;;;;;3.35;3.05;;;;;;;;;;5002925;28;24425;-59
2021/11/05 08:21:56;;;;;;;3.10;2.90;;;;;;;;;;4997031;28;24408;-59
2021/11/05 08:24:21;;;;;;;3.08;2.88;;;;;;;;;;4996797;28;24444;-59
2021/11/05 08:26:46;;;;;;;3.10;2.90;;;;;;;;;;5000838;28;24393;-60
2021/11/05 08:29:11;;;;;;;3.20;3.00;;;;;;;;;;5002068;28;25326;-58
2021/11/05 08:31:37;;;;;;;3.10;2.90;;;;;;;;;;5003031;28;24473;-58
2021/11/05 08:34:02;;;;;;;3.60;3.40;;;;;;;;;;4996264;28;25033;-58
2021/11/05 08:36:27;;;;;;;3.47;3.27;;;;;;;;;;4996694;28;24626;-58
2021/11/05 08:38:53;;;;;;;2.90;2.70;;;;;;;;;;5000729;28;24461;-59
2021/11/05 08:41:19;;;;;;;3.40;3.10;;;;;;;;;;5002218;28;24428;-59
2021/11/05 08:43:45;;;;;;;3.70;3.40;;;;;;;;;;5000562;28;25173;-58
2021/11/05 08:46:12;;;;;;;3.30;3.10;;;;;;;;;;4999904;28;24798;-57
2021/11/05 08:48:38;;;;;;;3.40;3.10;;;;;;;;;;4998540;28;24405;-58
2021/11/05 08:51:07;;;;;;;3.53;3.23;;;;;;;;;;4997030;28;24454;-58
2021/11/05 08:53:32;;;;;;;3.30;3.10;;;;;;;;;;4998642;28;24447;-58
2021/11/05 08:55:57;;;;;;;3.07;2.87;;;;;;;;;;5001762;28;24416;-58
2021/11/05 08:58:22;;;;;;;2.80;2.60;;;;;;;;;;5002081;28;24423;-58
2021/11/05 09:00:48;;;;;;;2.70;2.50;;;;;;;;;;5000870;28;24404;-59
2021/11/05 09:03:13;;;;;;;3.30;3.10;;;;;;;;;;5003232;28;24396;-58
2021/11/05 09:05:39;;;;;;;2.70;2.50;;;;;;;;;;5002633;28;24491;-58
2021/11/05 09:08:05;;;;;;;3.00;2.80;;;;;;;;;;5006659;28;24759;-58
2021/11/05 09:10:31;;;;;;;2.60;2.40;;;;;;;;;;5004077;28;24741;-58
2021/11/05 09:12:56;;;;;;;2.70;2.50;;;;;;;;;;4987265;28;24393;-58
2021/11/05 09:15:23;;;;;;;11.80;9.53;;;;;;;;;;4989247;28;24423;-58
2021/11/05 09:17:50;;;;;;;18.52;13.50;;;;;;;;;;5003425;28;24404;-58
2021/11/05 09:20:16;;;;;;;10.70;9.57;;;;;;;;;;5003175;28;24388;-58
2021/11/05 09:22:41;;;;;;;14.55;13.13;;;;;;;;;;5004532;28;24407;-58
2021/11/05 09:25:07;;;;;;;5.07;4.68;;;;;;;;;;5008327;28;24418;-59
2021/11/05 09:27:32;;;;;;;3.67;3.38;;;;;;;;;;5008017;28;24947;-58
2021/11/05 09:29:57;;;;;;;4.50;4.20;;;;;;;;;;5006230;28;25449;-58
2021/11/05 09:32:24;;;;;;;4.30;4.00;;;;;;;;;;5008336;28;24392;-58
2021/11/05 09:34:50;;;;;;;3.83;3.45;;;;;;;;;;5002474;28;24562;-58
2021/11/05 09:37:15;;;;;;;7.50;7.00;;;;;;;;;;5002262;28;24440;-58
2021/11/05 09:39:40;;;;;;;3.90;3.60;;;;;;;;;;5006987;28;24507;-59
2021/11/05 09:42:05;;;;;;;3.70;3.40;;;;;;;;;;5007850;28;24470;-59
2021/11/05 09:44:31;;;;;;;3.90;3.60;;;;;;;;;;5007971;28;24958;-58
2021/11/05 09:47:02;;;;;;;5.20;4.70;;;;;;;;;;5005899;28;25249;-58
2021/11/05 09:49:27;;;;;;;4.43;4.13;;;;;;;;;;5004520;28;24400;-58
2021/11/05 09:51:55;;;;;;;3.40;3.20;;;;;;;;;;5002651;28;24478;-58
2021/11/05 09:54:20;;;;;;;4.47;4.18;;;;;;;;;;5003654;28;24962;-59
2021/11/05 09:56:46;;;;;;;3.50;3.30;;;;;;;;;;5007636;28;24508;-59
2021/11/05 09:59:12;;;;;;;4.47;4.07;;;;;;;;;;5007453;28;24997;-58
2021/11/05 10:01:38;;;;;;;4.40;4.00;;;;;;;;;;5006395;28;24415;-59
2021/11/05 10:04:03;;;;;;;3.80;3.50;;;;;;;;;;5002403;28;24417;-59
2021/11/05 10:06:28;;;;;;;3.10;2.90;;;;;;;;;;5002335;28;24407;-59
2021/11/05 10:08:54;;;;;;;2.90;2.70;;;;;;;;;;5003600;28;25023;-58
2021/11/05 10:11:31;;;;;;;3.07;2.70;;;;;;;;;;4987823;28;24455;-59
2021/11/05 10:13:58;;;;;;;2.60;2.40;;;;;;;;;;4984311;28;24392;-59
2021/11/05 10:16:25;;;;;;;3.38;3.17;;;;;;;;;;4985067;28;24512;-59
2021/11/05 10:18:56;;;;;;;7.00;5.43;;;;;;;;;;4985055;28;24503;-59
2021/11/05 10:21:21;;;;;;;8.60;5.65;;;;;;;;;;4999212;28;24401;-59
2021/11/05 10:23:46;;;;;;;6.20;4.80;;;;;;;;;;5003070;28;24514;-59
2021/11/05 10:26:27;;;;;;;5.00;4.50;;;;;;;;;;5004085;28;24404;-59
2021/11/05 10:28:53;;;;;;;7.95;7.15;;;;;;;;;;5002597;28;25266;-59
2021/11/05 10:31:18;;;;;;;7.00;6.30;;;;;;;;;;5004159;28;24453;-59
2021/11/05 10:33:44;;;;;;;6.80;6.10;;;;;;;;;;4999239;28;24424;-59
2021/11/05 10:36:14;;;;;;;9.60;8.70;;;;;;;;;;4998613;28;24880;-59
2021/11/05 10:38:50;;;;;;;2.70;2.50;;;;;;;;;;5002376;28;24852;-59
2021/11/05 10:41:19;;;;;;;7.20;5.90;;;;;;;;;;5004647;28;24963;-58
2021/11/05 10:43:49;;;;;;;9.00;8.10;;;;;;;;;;5003179;28;24415;-59
2021/11/05 10:46:23;;;;;;;3.53;3.22;;;;;;;;;;5002055;28;24432;-59
2021/11/05 10:48:48;;;;;;;2.88;2.67;;;;;;;;;;4998858;28;24451;-59
2021/11/05 10:51:14;;;;;;;5.47;5.07;;;;;;;;;;5002082;28;24404;-59
2021/11/05 10:53:40;;;;;;;7.03;6.43;;;;;;;;;;4998630;28;24401;-59
2021/11/05 10:56:07;;;;;;;3.20;3.00;;;;;;;;;;5004244;28;24424;-59
2021/11/05 10:58:50;;;;;;;6.90;6.30;;;;;;;;;;5003888;28;25348;-59
2021/11/05 11:01:17;;;;;;;5.05;4.65;;;;;;;;;;4999749;28;24973;-59
2021/11/05 11:03:46;;;;;;;3.70;3.40;;;;;;;;;;5000683;28;25073;-59
2021/11/05 11:06:13;;;;;;;3.47;3.20;;;;;;;;;;5001878;28;25127;-58
2021/11/05 11:08:42;;;;;;;2.90;2.70;;;;;;;;;;4990347;28;24459;-58
2021/11/05 11:11:13;;;;;;;2.90;2.70;;;;;;;;;;4984030;28;25258;-59
2021/11/05 11:13:39;;;;;;;2.90;2.70;;;;;;;;;;4982166;28;24404;-59
2021/11/05 11:16:08;;;;;;;3.70;3.50;;;;;;;;;;4989220;28;24421;-58
2021/11/05 11:18:44;;;;;;;3.47;3.17;;;;;;;;;;4999730;28;24404;-59
2021/11/05 11:21:10;;;;;;;16.38;14.88;;;;;;;;;;5001796;28;24502;-58
2021/11/05 11:23:35;;;;;;;6.60;6.00;;;;;;;;;;5003134;28;24472;-59
2021/11/05 11:26:01;;;;;;;4.60;4.20;;;;;;;;;;5001231;28;24436;-58
2021/11/05 11:28:26;;;;;;;15.85;14.07;;;;;;;;;;5001334;28;24404;-59
2021/11/05 11:30:51;;;;;;;15.93;14.33;;;;;;;;;;4997883;28;24862;-59
2021/11/05 11:33:17;;;;;;;17.37;15.67;;;;;;;;;;4999936;28;24400;-58
2021/11/05 11:35:43;;;;;;;8.45;7.65;;;;;;;;;;4999079;28;24412;-58
2021/11/05 11:38:11;;;;;;;4.60;4.20;;;;;;;;;;5003149;28;25175;-59
2021/11/05 11:40:36;;;;;;;9.73;8.83;;;;;;;;;;5002883;28;25009;-58
2021/11/05 11:43:02;;;;;;;7.13;6.43;;;;;;;;;;5001509;28;24551;-58
2021/11/05 11:45:27;;;;;;;3.90;3.60;;;;;;;;;;4998962;28;24725;-58
2021/11/05 11:47:55;;;;;;;3.10;2.90;;;;;;;;;;4997634;28;24424;-58
2021/11/05 11:50:23;;;;;;;3.00;2.80;;;;;;;;;;4999535;28;24538;-58
2021/11/05 11:52:58;;;;;;;2.65;2.45;;;;;;;;;;4999420;28;24877;-59
2021/11/05 11:55:23;;;;;;;2.70;2.50;;;;;;;;;;5002408;28;24451;-58
2021/11/05 11:58:06;;;;;;;2.70;2.50;;;;;;;;;;5000587;28;24459;-58
2021/11/05 12:00:31;;;;;;;2.42;2.30;;;;;;;;;;5001015;28;24404;-58
2021/11/05 12:03:07;;;;;;;2.65;2.45;;;;;;;;;;4997406;28;24467;-58
2021/11/05 12:05:40;;;;;;;3.00;2.80;;;;;;;;;;4998834;28;24431;-58
2021/11/05 12:08:23;;;;;;;3.13;2.93;;;;;;;;;;4994975;28;25461;-57
2021/11/05 12:10:50;;;;;;;2.80;2.60;;;;;;;;;;5001183;28;24403;-58
2021/11/05 12:13:36;;;;;;;2.80;2.60;;;;;;;;;;5002777;28;25030;-58
2021/11/05 12:16:24;;;;;;;3.00;2.80;;;;;;;;;;4996851;28;24905;-58
2021/11/05 12:18:57;;;;;;;3.40;3.10;;;;;;;;;;4996404;28;24474;-58
2021/11/05 12:21:23;;;;;;;3.55;3.25;;;;;;;;;;4998935;28;24475;-58
2021/11/05 12:24:07;;;;;;;3.20;3.00;;;;;;;;;;5002392;28;24432;-58
2021/11/05 12:26:50;;;;;;;3.00;2.70;;;;;;;;;;5002201;28;24962;-58
2021/11/05 12:29:34;;;;;;;2.60;2.40;;;;;;;;;;5002017;28;24507;-59
2021/11/05 12:31:59;;;;;;;3.50;3.20;;;;;;;;;;4997146;28;24989;-58
2021/11/05 12:34:37;;;;;;;3.45;3.15;;;;;;;;;;4997260;28;24743;-58
2021/11/05 12:37:03;;;;;;;2.97;2.70;;;;;;;;;;4997676;28;24460;-58
2021/11/05 12:39:33;;;;;;;2.88;2.67;;;;;;;;;;5001777;28;24976;-58
2021/11/05 12:42:15;;;;;;;3.42;3.22;;;;;;;;;;5000686;28;24785;-58
2021/11/05 12:44:58;;;;;;;3.00;2.80;;;;;;;;;;4998324;28;25009;-57
2021/11/05 12:47:42;;;;;;;2.70;2.55;;;;;;;;;;4996736;28;24945;-57
2021/11/05 12:50:07;;;;;;;3.22;2.92;;;;;;;;;;4999817;28;24417;-58
2021/11/05 12:52:32;;;;;;;3.85;2.90;;;;;;;;;;5001885;28;24470;-58
2021/11/05 12:54:59;;;;;;;3.50;3.20;;;;;;;;;;5000817;28;24877;-58
2021/11/05 12:57:24;;;;;;;3.00;2.80;;;;;;;;;;5001985;28;24419;-58
2021/11/05 12:59:50;;;;;;;3.22;3.03;;;;;;;;;;4996399;28;24455;-58
2021/11/05 13:02:18;;;;;;;3.50;3.30;;;;;;;;;;4996366;28;24448;-58
2021/11/05 13:04:49;;;;;;;3.15;2.95;;;;;;;;;;4997792;28;24427;-58
2021/11/05 13:07:15;;;;;;;3.28;3.08;;;;;;;;;;4980531;28;24762;-58
2021/11/05 13:09:41;;;;;;;3.60;3.40;;;;;;;;;;4962893;28;24405;-59
2021/11/05 13:12:08;;;;;;;3.40;3.20;;;;;;;;;;4982993;28;24396;-58
2021/11/05 13:14:59;;;;;;;3.08;2.88;;;;;;;;;;4998106;28;24423;-58
2021/11/05 13:17:34;;;;;;;3.30;3.10;;;;;;;;;;4992275;28;24428;-58
2021/11/05 13:20:15;;;;;;;3.67;3.47;;;;;;;;;;4998643;28;24564;-58
2021/11/05 13:22:42;;;;;;;3.72;3.53;;;;;;;;;;4999596;28;24496;-58
2021/11/05 13:25:11;;;;;;;3.90;3.60;;;;;;;;;;5000955;28;25145;-58
2021/11/05 13:27:36;;;;;;;4.20;3.90;;;;;;;;;;4997951;28;24396;-58
2021/11/05 13:30:02;;;;;;;4.30;4.00;;;;;;;;;;4995999;28;24503;-58
2021/11/05 13:32:27;;;;;;;4.10;3.80;;;;;;;;;;4997888;28;24404;-58
2021/11/05 13:34:52;;;;;;;4.00;3.70;;;;;;;;;;5000097;28;24412;-58
2021/11/05 13:37:18;;;;;;;4.20;3.90;;;;;;;;;;5001039;28;24515;-59
2021/11/05 13:39:43;;;;;;;4.47;4.17;;;;;;;;;;4999492;28;24392;-59
2021/11/05 13:42:17;;;;;;;5.00;4.60;;;;;;;;;;4998270;28;24957;-58
2021/11/05 13:44:43;;;;;;;4.60;4.30;;;;;;;;;;4997550;28;24458;-58
2021/11/05 13:47:11;;;;;;;4.60;4.30;;;;;;;;;;4996286;28;24443;-58
2021/11/05 13:49:36;;;;;;;4.50;4.20;;;;;;;;;;5002594;28;25005;-58
2021/11/05 13:52:05;;;;;;;6.30;5.80;;;;;;;;;;5003407;28;24491;-57
2021/11/05 13:54:30;;;;;;;12.70;10.67;;;;;;;;;;5004958;28;25064;-57
2021/11/05 13:56:55;;;;;;;25.10;18.38;;;;;;;;;;5001364;28;24487;-58
2021/11/05 13:59:27;;;;;;;37.93;25.10;;;;;;;;;;4999440;28;25211;-57
2021/11/05 14:01:53;;;;;;;13.73;10.73;;;;;;;;;;5001107;28;24709;-57
2021/11/05 14:04:20;;;;;;;9.00;7.77;;;;;;;;;;4992137;28;24554;-59
2021/11/05 14:06:49;;;;;;;8.73;7.45;;;;;;;;;;4985054;28;24415;-58
2021/11/05 14:09:22;;;;;;;21.52;15.40;;;;;;;;;;4985133;28;24401;-57
2021/11/05 14:11:49;;;;;;;42.78;30.08;;;;;;;;;;4981408;28;24479;-57
2021/11/05 14:14:28;;;;;;;21.58;16.85;;;;;;;;;;4991845;28;25053;-57
2021/11/05 14:16:54;;;;;;;19.92;17.80;;;;;;;;;;4998125;28;24417;-58
2021/11/05 14:19:38;;;;;;;8.20;7.50;;;;;;;;;;5000145;28;24740;-59
2021/11/05 14:22:07;;;;;;;6.60;6.00;;;;;;;;;;5003811;28;25017;-59
2021/11/05 14:24:37;;;;;;;7.50;6.90;;;;;;;;;;5004281;28;24444;-59
2021/11/05 14:27:07;;;;;;;7.20;6.70;;;;;;;;;;5000408;28;24405;-57
2021/11/05 14:29:34;;;;;;;8.00;7.30;;;;;;;;;;4999391;28;24447;-58
2021/11/05 14:32:02;;;;;;;14.43;12.82;;;;;;;;;;5000470;28;24408;-58
2021/11/05 14:34:29;;;;;;;43.30;30.80;;;;;;;;;;5001121;28;24420;-57
2021/11/05 14:37:07;;;;;;;16.60;14.48;;;;;;;;;;4999590;28;24516;-57